Time;durP1;ratioP1;P1;durP2;ratioP2;P2;SDS_P1;SDS_P2;PMS_P1;PMS_P2;Temp;Humidity;BMP_temperature;BMP_pressure;BME280_temperature;BME280_humidity;BME280_pressure;Samples;Min_cycle;Max_cycle;Signal;HPM_P1;HPM_P2
2021/03/08 00:06:26;;;;;;;0.40;0.40;;;11.70;99.90;;;;;;20618554;28;20960;-74
2021/03/08 00:16:29;;;;;;;1.23;1.13;;;11.60;99.90;;;;;;20616808;28;20196;-72
2021/03/08 00:26:33;;;;;;;2.47;1.60;;;11.80;99.90;;;;;;20487629;28;20224;-71
2021/03/08 00:36:50;;;;;;;6.53;2.30;;;12.00;99.90;;;;;;20455004;28;20287;-72
2021/03/08 00:46:54;;;;;;;1.53;0.97;;;12.10;99.90;;;;;;20484524;28;20259;-71
2021/03/08 00:56:56;;;;;;;1.60;1.20;;;12.00;99.90;;;;;;20531653;28;20208;-74
2021/03/08 01:07:10;;;;;;;0.20;0.10;;;11.70;99.90;;;;;;20544904;23;20252;-67
2021/03/08 01:17:13;;;;;;;0.60;0.60;;;11.60;99.90;;;;;;20543721;28;20524;-67
2021/03/08 01:27:17;;;;;;;0.70;0.70;;;11.50;99.90;;;;;;20530977;28;20345;-67
2021/03/08 01:37:28;;;;;;;0.80;0.77;;;11.40;99.90;;;;;;20529929;28;20656;-67
2021/03/08 01:47:32;;;;;;;0.60;0.60;;;11.30;99.90;;;;;;20546572;28;20228;-65
2021/03/08 01:57:35;;;;;;;0.60;0.57;;;11.40;99.90;;;;;;20543714;28;20204;-67
2021/03/08 02:07:46;;;;;;;0.73;0.70;;;11.50;99.90;;;;;;20544298;28;20235;-66
2021/03/08 02:17:56;;;;;;;1.13;0.73;;;11.50;99.90;;;;;;20532983;28;20551;-66
2021/03/08 02:28:43;;;;;;;4.57;0.97;;;11.60;99.90;;;;;;20461202;28;20231;-66
2021/03/08 02:38:55;;;;;;;1.07;1.03;;;11.60;99.90;;;;;;20477631;28;20221;-67
2021/03/08 02:49:02;;;;;;;0.93;0.73;;;11.60;99.90;;;;;;20459424;28;20631;-67
2021/03/08 02:59:10;;;;;;;0.90;0.53;;;11.60;99.90;;;;;;20462171;28;20224;-67
2021/03/08 03:09:14;;;;;;;1.57;0.50;;;11.60;99.90;;;;;;20457844;28;20383;-67
2021/03/08 03:19:20;;;;;;;0.20;0.10;;;11.60;99.90;;;;;;20481730;28;20224;-68
2021/03/08 03:29:24;;;;;;;1.57;1.47;;;11.50;99.90;;;;;;20536895;28;20200;-69
2021/03/08 03:39:28;;;;;;;0.87;0.43;;;11.70;99.90;;;;;;20537776;28;20227;-67
2021/03/08 03:49:30;;;;;;;2.40;0.77;;;11.90;99.90;;;;;;20537154;28;20320;-67
2021/03/08 03:59:42;;;;;;;0.23;0.23;;;11.90;99.90;;;;;;20532489;28;20779;-67
2021/03/08 04:09:48;;;;;;;0.70;0.70;;;12.10;99.90;;;;;;20534319;28;20210;-67
2021/03/08 04:19:54;;;;;;;0.83;0.53;;;11.90;99.90;;;;;;20532627;28;20224;-67
2021/03/08 04:29:58;;;;;;;1.50;1.40;;;11.80;99.90;;;;;;20533031;28;20543;-68
2021/03/08 04:40:03;;;;;;;0.40;0.37;;;11.90;99.90;;;;;;20529355;28;20223;-67
2021/03/08 04:50:08;;;;;;;0.30;0.30;;;11.70;99.90;;;;;;20530875;28;20192;-66
2021/03/08 05:00:14;;;;;;;0.20;0.20;;;11.80;99.90;;;;;;20529593;28;20254;-66
2021/03/08 05:10:18;;;;;;;0.23;0.23;;;11.90;99.90;;;;;;20530911;28;20829;-66
2021/03/08 05:20:23;;;;;;;0.20;0.10;;;12.00;99.90;;;;;;20528514;28;20689;-67
2021/03/08 05:30:27;;;;;;;0.20;0.17;;;11.90;99.90;;;;;;20543205;28;20464;-66
2021/03/08 05:40:50;;;;;;;1.60;0.67;;;11.90;99.90;;;;;;20529247;28;20239;-67
2021/03/08 05:51:29;;;;;;;0.50;0.43;;;12.40;99.90;;;;;;20542675;28;20545;-66
2021/03/08 06:02:02;;;;;;;0.20;0.10;;;12.50;99.90;;;;;;20526138;28;20239;-66
2021/03/08 06:12:09;;;;;;;0.77;0.47;;;12.40;99.90;;;;;;20543217;28;20200;-68
2021/03/08 06:22:14;;;;;;;0.33;0.30;;;12.30;99.90;;;;;;20481164;28;20228;-68
2021/03/08 06:32:17;;;;;;;0.67;0.40;;;12.20;99.90;;;;;;20462675;28;20559;-68
2021/03/08 06:42:21;;;;;;;0.20;0.10;;;12.30;99.90;;;;;;20460311;28;20221;-68
2021/03/08 06:52:24;;;;;;;0.67;0.30;;;12.40;99.90;;;;;;20458925;28;20205;-68
2021/03/08 07:02:38;;;;;;;0.30;0.20;;;12.40;99.90;;;;;;20456581;28;20241;-67
2021/03/08 07:12:48;;;;;;;0.30;0.30;;;12.50;99.90;;;;;;20457151;28;20664;-67
2021/03/08 07:22:53;;;;;;;0.20;0.20;;;12.50;99.90;;;;;;20508272;28;20242;-66
2021/03/08 07:32:58;;;;;;;0.30;0.30;;;12.30;99.90;;;;;;20537011;28;20204;-68
2021/03/08 07:43:02;;;;;;;0.63;0.63;;;12.30;99.90;;;;;;20533926;28;20231;-68
2021/03/08 07:53:24;;;;;;;0.27;0.27;;;12.20;99.90;;;;;;20534010;28;20756;-67
2021/03/08 08:03:27;;;;;;;0.20;0.20;;;12.20;99.90;;;;;;20498211;28;20729;-65
2021/03/08 08:13:35;;;;;;;0.80;0.33;;;12.10;99.90;;;;;;20491547;28;20259;-66
2021/03/08 08:23:41;;;;;;;1.10;0.70;;;11.90;99.90;;;;;;20467495;28;20228;-67
2021/03/08 08:33:44;;;;;;;0.47;0.47;;;12.00;99.90;;;;;;20458426;28;20209;-66
2021/03/08 08:43:49;;;;;;;0.40;0.40;;;12.00;99.90;;;;;;20450936;28;20295;-66
2021/03/08 08:53:51;;;;;;;0.77;0.27;;;12.20;99.90;;;;;;20447845;28;20570;-65
2021/03/08 09:03:59;;;;;;;0.20;0.20;;;12.20;99.90;;;;;;20451851;28;20494;-68
2021/03/08 09:14:26;;;;;;;0.30;0.30;;;12.20;99.90;;;;;;20449003;28;20364;-68
2021/03/08 09:24:34;;;;;;;0.60;0.60;;;12.30;99.90;;;;;;20515349;28;20537;-70
2021/03/08 09:34:37;;;;;;;1.33;1.07;;;12.60;99.90;;;;;;20528409;28;20652;-69
2021/03/08 09:44:43;;;;;;;0.80;0.67;;;12.40;99.90;;;;;;20529886;28;20321;-68
2021/03/08 09:54:47;;;;;;;0.53;0.30;;;12.50;99.90;;;;;;20517878;28;20204;-69
2021/03/08 10:04:55;;;;;;;0.40;0.40;;;12.70;99.90;;;;;;20505290;28;20382;-74
2021/03/08 10:15:01;;;;;;;2.20;1.60;;;12.80;99.90;;;;;;20544607;28;21015;-77
2021/03/08 10:25:23;;;;;;;0.97;0.53;;;12.80;99.90;;;;;;20544054;28;20231;-72
2021/03/08 10:35:26;;;;;;;1.50;1.20;;;12.90;99.90;;;;;;20546457;28;20282;-77
2021/03/08 10:45:32;;;;;;;0.97;0.90;;;12.80;99.90;;;;;;20550388;28;20342;-76
2021/03/08 10:55:36;;;;;;;3.13;2.17;;;12.90;99.90;;;;;;20546981;28;20279;-76
2021/03/08 11:05:39;;;;;;;3.20;0.73;;;12.90;99.90;;;;;;20544597;28;20251;-74
2021/03/08 11:15:44;;;;;;;3.00;0.50;;;13.00;99.90;;;;;;20540821;28;20262;-75
2021/03/08 11:25:49;;;;;;;1.33;1.23;;;13.20;99.90;;;;;;20497398;28;20232;-80
2021/03/08 11:35:52;;;;;;;0.33;0.33;;;13.50;99.90;;;;;;20460986;28;20196;-79
2021/03/08 11:45:56;;;;;;;0.93;0.80;;;13.80;99.90;;;;;;20458309;28;20244;-76
2021/03/08 11:55:59;;;;;;;1.23;0.93;;;14.40;99.90;;;;;;20467160;28;20280;-78
2021/03/08 12:06:05;;;;;;;2.30;1.27;;;15.20;99.90;;;;;;20463322;28;20236;-82
2021/03/08 12:16:11;;;;;;;2.35;2.13;;;15.10;99.90;;;;;;20535838;28;20624;-81
2021/03/08 12:26:17;;;;;;;7.47;1.27;;;15.30;99.90;;;;;;20538781;28;20224;-72
2021/03/08 12:36:20;;;;;;;2.40;2.10;;;15.20;99.90;;;;;;20535403;28;20311;-78
2021/03/08 12:46:24;;;;;;;1.77;1.17;;;14.80;99.90;;;;;;20537665;28;20232;-78
2021/03/08 12:56:28;;;;;;;0.20;0.17;;;15.00;99.90;;;;;;20535454;28;20238;-80
2021/03/08 13:06:33;;;;;;;0.87;0.87;;;15.10;99.90;;;;;;20511908;28;20697;-77
2021/03/08 13:16:39;;;;;;;2.73;2.30;;;15.10;99.90;;;;;;20525576;28;20201;-77
2021/03/08 13:26:44;;;;;;;1.17;0.60;;;15.00;99.90;;;;;;20464176;28;20256;-76
2021/03/08 13:36:46;;;;;;;0.60;0.47;;;14.90;99.90;;;;;;20447590;28;20200;-73
2021/03/08 13:47:10;;;;;;;1.33;0.90;;;15.10;99.90;;;;;;20448965;28;20230;-75
2021/03/08 13:57:13;;;;;;;0.83;0.70;;;15.10;99.90;;;;;;20446842;28;20204;-76
2021/03/08 14:07:17;;;;;;;1.50;0.97;;;15.10;99.90;;;;;;20450508;28;20554;-78
2021/03/08 14:17:32;;;;;;;1.70;1.27;;;15.00;99.90;;;;;;20507110;28;20548;-76
2021/03/08 14:27:36;;;;;;;1.43;1.33;;;15.00;99.90;;;;;;20528075;28;20228;-78
2021/03/08 14:37:38;;;;;;;13.47;0.97;;;14.90;99.90;;;;;;20531710;28;20515;-75
2021/03/08 14:47:46;;;;;;;0.40;0.40;;;14.70;99.90;;;;;;20535347;28;20220;-79
2021/03/08 14:57:49;;;;;;;1.00;0.57;;;14.90;99.90;;;;;;20544756;28;20282;-80
2021/03/08 15:07:53;;;;;;;0.60;0.60;;;15.00;99.90;;;;;;20538569;28;20340;-76
2021/03/08 15:18:00;;;;;;;0.77;0.63;;;14.60;99.90;;;;;;20535371;28;20240;-74
2021/03/08 15:28:04;;;;;;;1.07;0.60;;;14.90;99.90;;;;;;20499080;28;20587;-77
2021/03/08 15:38:07;;;;;;;0.57;0.57;;;15.00;99.90;;;;;;20460191;28;20566;-77
2021/03/08 15:48:11;;;;;;;0.87;0.53;;;15.30;99.90;;;;;;20462193;28;20239;-77
2021/03/08 15:58:14;;;;;;;1.67;1.27;;;15.00;99.90;;;;;;20496884;28;20256;-77
2021/03/08 16:08:22;;;;;;;1.33;1.07;;;14.90;99.90;;;;;;20493111;28;20243;-78
2021/03/08 16:18:25;;;;;;;0.87;0.87;;;14.60;99.90;;;;;;20535596;28;20204;-78
2021/03/08 16:28:29;;;;;;;1.97;1.50;;;14.70;99.90;;;;;;20497487;28;20266;-79
2021/03/08 16:38:32;;;;;;;0.53;0.53;;;14.50;99.90;;;;;;20452233;28;20730;-77
2021/03/08 16:48:36;;;;;;;1.57;0.93;;;14.30;99.90;;;;;;20452170;28;20305;-78
2021/03/08 16:58:40;;;;;;;0.30;0.30;;;14.40;99.90;;;;;;20451274;28;20196;-77
2021/03/08 17:08:44;;;;;;;0.20;0.10;;;14.30;99.90;;;;;;20499404;28;20835;-77
2021/03/08 17:18:46;;;;;;;0.77;0.47;;;14.40;99.90;;;;;;20526873;28;20610;-76
2021/03/08 17:28:50;;;;;;;2.60;0.90;;;14.20;99.90;;;;;;20529365;28;20327;-77
2021/03/08 17:38:53;;;;;;;0.97;0.97;;;13.90;99.90;;;;;;20530736;28;20320;-77
2021/03/08 17:48:56;;;;;;;0.37;0.37;;;13.50;99.90;;;;;;20530409;28;20220;-74
2021/03/08 17:59:01;;;;;;;0.20;0.10;;;13.20;99.90;;;;;;20520326;28;20681;-71
2021/03/08 18:09:06;;;;;;;0.40;0.40;;;12.90;99.90;;;;;;20527604;28;20243;-74
2021/03/08 18:19:12;;;;;;;0.93;0.77;;;12.80;99.90;;;;;;20526429;28;20791;-74
2021/03/08 18:29:16;;;;;;;1.47;0.87;;;12.70;99.90;;;;;;20540757;28;20230;-75
2021/03/08 18:39:18;;;;;;;4.03;1.50;;;12.90;99.90;;;;;;20540206;28;20204;-75
2021/03/08 18:49:24;;;;;;;0.60;0.40;;;12.90;99.90;;;;;;20506033;28;20612;-74
2021/03/08 18:59:28;;;;;;;0.83;0.83;;;12.90;99.90;;;;;;20537139;28;20219;-74
2021/03/08 19:09:32;;;;;;;0.50;0.50;;;13.00;99.90;;;;;;20527590;28;20255;-74
2021/03/08 19:19:34;;;;;;;2.00;1.60;;;12.80;99.90;;;;;;20504839;28;20283;-74
2021/03/08 19:29:40;;;;;;;0.90;0.87;;;12.80;99.90;;;;;;20537847;28;20238;-75
2021/03/08 19:39:43;;;;;;;1.37;1.27;;;12.40;99.90;;;;;;20524425;28;20296;-74
2021/03/08 19:49:47;;;;;;;4.80;1.20;;;11.80;99.90;;;;;;20539062;28;20297;-75
2021/03/08 19:59:49;;;;;;;1.23;1.13;;;11.90;99.90;;;;;;20534347;28;20283;-74
2021/03/08 20:09:53;;;;;;;6.23;2.33;;;11.70;99.90;;;;;;20536436;28;20367;-74
2021/03/08 20:19:59;;;;;;;1.93;1.40;;;11.50;99.90;;;;;;20506981;28;20209;-76
2021/03/08 20:30:03;;;;;;;0.30;0.30;;;11.60;99.90;;;;;;20463210;28;20216;-76
2021/03/08 20:40:08;;;;;;;1.00;1.00;;;11.50;99.90;;;;;;20462749;28;20192;-74
2021/03/08 20:50:14;;;;;;;0.60;0.60;;;11.00;99.90;;;;;;20451939;28;20607;-74
2021/03/08 21:00:20;;;;;;;0.53;0.50;;;11.00;99.90;;;;;;20448650;28;20221;-74
2021/03/08 21:10:26;;;;;;;2.03;0.80;;;10.80;99.90;;;;;;20527789;28;20204;-74
2021/03/08 21:20:28;;;;;;;0.67;0.67;;;10.80;99.90;;;;;;20497313;28;20232;-72
2021/03/08 21:30:32;;;;;;;5.60;1.90;;;10.50;99.90;;;;;;20449234;28;20197;-73
2021/03/08 21:40:35;;;;;;;1.20;0.77;;;10.30;99.90;;;;;;20526760;28;20640;-74
2021/03/08 21:50:39;;;;;;;0.40;0.40;;;10.20;99.90;;;;;;20531097;28;20282;-74
2021/03/08 22:00:43;;;;;;;1.50;0.70;;;10.10;99.90;;;;;;20539448;28;20236;-75
2021/03/08 22:10:48;;;;;;;0.20;0.17;;;10.20;99.90;;;;;;20536884;28;20232;-74
2021/03/08 22:20:50;;;;;;;0.43;0.40;;;10.10;99.90;;;;;;20544974;28;20338;-74
2021/03/08 22:30:54;;;;;;;0.43;0.40;;;10.40;99.90;;;;;;20585234;28;20280;-76
2021/03/08 22:40:57;;;;;;;2.83;2.53;;;10.60;99.90;;;;;;20501162;28;20235;-77
2021/03/08 22:51:00;;;;;;;0.30;0.30;;;10.60;99.90;;;;;;20464193;28;20758;-76
2021/03/08 23:01:05;;;;;;;0.63;0.30;;;10.50;99.90;;;;;;20462329;28;20264;-76
2021/03/08 23:11:09;;;;;;;0.20;0.13;;;10.50;99.90;;;;;;20463882;28;20200;-77
2021/03/08 23:21:12;;;;;;;0.73;0.40;;;10.60;99.90;;;;;;20499073;28;20216;-79
2021/03/08 23:31:18;;;;;;;0.97;0.83;;;10.60;99.90;;;;;;20515464;28;20192;-74
2021/03/08 23:41:21;;;;;;;1.13;0.83;;;10.50;99.90;;;;;;20534398;28;20343;-72
2021/03/08 23:51:25;;;;;;;1.23;1.13;;;10.30;99.90;;;;;;20493391;28;20199;-73
